createdAt,value
2022-10-18T00:00:06.131Z,14.80
2022-10-18T00:02:33.005Z,14.70
2022-10-18T00:04:59.735Z,14.70
2022-10-18T00:07:26.389Z,14.60
2022-10-18T00:09:53.102Z,14.70
2022-10-18T00:12:19.866Z,14.60
2022-10-18T00:14:50.140Z,14.60
2022-10-18T00:17:16.912Z,14.60
2022-10-18T00:19:44.128Z,14.60
2022-10-18T00:22:10.825Z,14.50
2022-10-18T00:24:37.571Z,14.50
2022-10-18T00:27:04.293Z,14.40
2022-10-18T00:29:30.940Z,14.50
2022-10-18T00:31:57.760Z,14.50
2022-10-18T00:34:24.443Z,14.50
2022-10-18T00:36:51.182Z,14.50
2022-10-18T00:39:20.236Z,14.50
2022-10-18T00:41:47.890Z,14.50
2022-10-18T00:44:17.556Z,14.50
2022-10-18T00:46:46.863Z,14.40
2022-10-18T00:49:23.348Z,14.40
2022-10-18T00:51:57.793Z,14.30
2022-10-18T00:54:25.315Z,14.30
2022-10-18T00:56:52.280Z,14.30
2022-10-18T00:59:20.230Z,14.30
2022-10-18T01:01:47.242Z,14.30
2022-10-18T01:04:15.850Z,14.20
2022-10-18T01:07:08.287Z,14.20
2022-10-18T01:10:13.356Z,14.20
2022-10-18T01:13:23.410Z,14.10
2022-10-18T01:16:05.255Z,14.10
2022-10-18T01:18:41.792Z,14.10
2022-10-18T01:21:20.436Z,14.10
2022-10-18T01:24:14.784Z,14.10
2022-10-18T01:27:10.057Z,14.20
2022-10-18T01:29:48.461Z,14.20
2022-10-18T01:32:32.814Z,14.20
2022-10-18T01:35:04.697Z,14.20
2022-10-18T01:37:33.293Z,14.10
2022-10-18T01:40:03.594Z,14.20
2022-10-18T01:42:31.327Z,14.20
2022-10-18T01:44:59.126Z,14.20
2022-10-18T01:47:26.927Z,14.20
2022-10-18T01:50:06.110Z,14.10
2022-10-18T01:52:33.162Z,14.10
2022-10-18T01:55:02.057Z,14.00
2022-10-18T01:58:00.674Z,14.00
2022-10-18T02:00:37.270Z,14.00
2022-10-18T02:03:23.175Z,14.00
2022-10-18T02:06:07.488Z,13.90
2022-10-18T02:08:56.955Z,13.90
2022-10-18T02:11:24.855Z,13.90
2022-10-18T02:14:00.232Z,13.90
2022-10-18T02:16:31.922Z,13.90
2022-10-18T02:19:05.304Z,13.80
2022-10-18T02:21:33.243Z,13.80
2022-10-18T02:24:02.337Z,13.80
2022-10-18T02:26:29.765Z,13.80
2022-10-18T02:28:56.777Z,13.80
2022-10-18T02:31:31.046Z,13.80
2022-10-18T02:34:19.129Z,13.80
2022-10-18T02:36:48.210Z,13.80
2022-10-18T02:39:19.112Z,13.80
2022-10-18T02:41:46.616Z,13.80
2022-10-18T02:44:13.419Z,13.80
2022-10-18T02:46:40.703Z,13.80
2022-10-18T02:49:07.544Z,13.80
2022-10-18T02:51:34.735Z,13.80
2022-10-18T02:54:01.646Z,13.80
2022-10-18T02:56:28.413Z,13.80
2022-10-18T02:58:55.191Z,13.70
2022-10-18T03:01:22.137Z,13.70
2022-10-18T03:03:49.053Z,13.70
2022-10-18T03:06:15.838Z,13.70
2022-10-18T03:08:42.506Z,13.70
2022-10-18T03:11:09.164Z,13.70
2022-10-18T03:13:35.890Z,13.70
2022-10-18T03:16:02.645Z,13.60
2022-10-18T03:18:29.482Z,13.60
2022-10-18T03:20:56.247Z,13.60
2022-10-18T03:23:22.940Z,13.70
2022-10-18T03:25:49.695Z,13.70
2022-10-18T03:28:16.396Z,13.70
2022-10-18T03:30:43.081Z,13.70
2022-10-18T03:33:10.027Z,13.70
2022-10-18T03:35:36.782Z,13.70
2022-10-18T03:38:03.507Z,13.70
2022-10-18T03:42:57.900Z,13.80
2022-10-18T03:45:28.885Z,13.70
2022-10-18T03:47:57.916Z,13.80
2022-10-18T03:50:24.595Z,13.80
2022-10-18T03:52:51.347Z,13.90
2022-10-18T03:55:18.079Z,13.90
2022-10-18T03:57:44.813Z,13.90
2022-10-18T04:00:12.563Z,13.90
2022-10-18T04:02:39.469Z,13.90
2022-10-18T04:05:07.540Z,13.90
2022-10-18T04:10:07.621Z,14.00
2022-10-18T04:12:34.562Z,13.90
2022-10-18T04:15:01.687Z,14.00
2022-10-18T04:17:28.370Z,14.00
2022-10-18T04:19:55.073Z,13.90
2022-10-18T04:22:21.830Z,13.90
2022-10-18T04:24:48.612Z,13.90
2022-10-18T04:27:15.265Z,13.90
2022-10-18T04:29:41.943Z,13.80
2022-10-18T04:32:08.631Z,13.90
2022-10-18T04:34:35.402Z,13.90
2022-10-18T04:37:02.168Z,13.90
2022-10-18T04:39:29.134Z,13.90
2022-10-18T04:41:55.830Z,13.90
2022-10-18T04:44:22.677Z,13.90
2022-10-18T04:46:49.476Z,13.90
2022-10-18T04:49:16.145Z,13.90
2022-10-18T04:51:42.863Z,13.80
2022-10-18T04:54:09.616Z,13.80
2022-10-18T04:56:36.403Z,13.80
2022-10-18T04:59:03.166Z,13.80
2022-10-18T05:01:29.934Z,13.80
2022-10-18T05:03:56.715Z,13.80
2022-10-18T05:06:23.488Z,13.80
2022-10-18T05:08:50.237Z,13.80
2022-10-18T05:11:17.082Z,13.80
2022-10-18T05:13:46.049Z,13.90
2022-10-18T05:16:16.041Z,13.90
2022-10-18T05:18:43.263Z,13.90
2022-10-18T05:21:10.255Z,13.90
2022-10-18T05:23:36.968Z,14.00
2022-10-18T05:26:05.231Z,14.00
2022-10-18T05:28:39.753Z,14.00
2022-10-18T05:31:08.634Z,14.10
2022-10-18T05:33:35.337Z,14.00
2022-10-18T05:36:02.182Z,14.10
2022-10-18T05:38:30.915Z,14.10
2022-10-18T05:40:59.005Z,14.10
2022-10-18T05:43:29.207Z,14.10
2022-10-18T05:45:56.098Z,14.10
2022-10-18T05:48:23.187Z,14.00
2022-10-18T05:50:49.901Z,14.00
2022-10-18T05:53:35.632Z,14.00
2022-10-18T05:56:03.663Z,14.10
2022-10-18T05:58:30.451Z,14.10
2022-10-18T06:01:05.175Z,14.10
2022-10-18T06:03:32.482Z,14.10
2022-10-18T06:06:10.183Z,14.10
2022-10-18T06:08:39.099Z,14.20
2022-10-18T06:11:13.644Z,14.20
2022-10-18T06:13:47.953Z,14.20
2022-10-18T06:16:16.921Z,14.30
2022-10-18T06:18:43.605Z,14.40
2022-10-18T06:21:10.490Z,14.40
2022-10-18T06:23:37.162Z,14.40
2022-10-18T06:26:07.327Z,14.50
2022-10-18T06:28:35.848Z,14.50
2022-10-18T06:31:03.625Z,14.50
2022-10-18T06:33:34.460Z,14.50
2022-10-18T06:36:06.550Z,14.50
2022-10-18T06:38:34.303Z,14.60
2022-10-18T06:41:00.992Z,14.60
2022-10-18T06:43:27.893Z,14.60
2022-10-18T06:45:55.435Z,14.60
2022-10-18T06:48:22.945Z,14.70
2022-10-18T06:51:00.843Z,14.80
2022-10-18T06:53:32.670Z,14.80
2022-10-18T06:56:01.857Z,14.90
2022-10-18T06:58:29.807Z,14.90
2022-10-18T07:00:57.070Z,14.90
2022-10-18T07:03:24.044Z,14.90
2022-10-18T07:05:51.030Z,15.00
2022-10-18T07:08:18.412Z,15.00
2022-10-18T07:10:55.417Z,15.00
2022-10-18T07:13:38.083Z,15.00
2022-10-18T07:16:17.252Z,15.00
2022-10-18T07:18:49.475Z,15.10
2022-10-18T07:21:18.709Z,15.10
2022-10-18T07:23:46.343Z,15.20
2022-10-18T07:26:18.867Z,15.20
2022-10-18T07:28:48.636Z,15.20
2022-10-18T07:31:17.944Z,15.20
2022-10-18T07:33:44.626Z,15.20
2022-10-18T07:36:12.582Z,15.30
2022-10-18T07:38:39.385Z,15.30
2022-10-18T07:41:07.521Z,15.40
2022-10-18T07:43:34.719Z,15.30
2022-10-18T07:46:04.078Z,15.40
2022-10-18T07:48:30.991Z,15.50
2022-10-18T07:51:01.810Z,15.60
2022-10-18T07:53:29.583Z,15.70
2022-10-18T07:56:07.151Z,15.80
2022-10-18T07:58:36.119Z,15.90
2022-10-18T08:01:07.411Z,16.10
2022-10-18T08:03:35.292Z,16.10
2022-10-18T08:06:02.390Z,16.20
2022-10-18T08:08:29.700Z,16.20
2022-10-18T08:11:01.702Z,16.20
2022-10-18T08:13:28.960Z,16.10
2022-10-18T08:16:00.927Z,16.20
2022-10-18T08:18:27.694Z,16.20
2022-10-18T08:20:57.358Z,16.20
2022-10-18T08:23:24.034Z,16.10
2022-10-18T08:25:50.732Z,16.10
2022-10-18T08:28:17.607Z,16.20
2022-10-18T08:30:44.326Z,16.20
2022-10-18T08:33:11.221Z,16.30
2022-10-18T08:35:37.887Z,16.30
2022-10-18T08:38:05.251Z,16.30
2022-10-18T08:40:34.712Z,16.40
2022-10-18T08:43:21.660Z,16.40
2022-10-18T08:45:50.920Z,16.50
2022-10-18T08:48:28.996Z,16.70
2022-10-18T08:50:57.272Z,16.80
2022-10-18T08:53:29.986Z,17.00
2022-10-18T08:56:24.128Z,17.20
2022-10-18T08:58:51.013Z,17.30
2022-10-18T09:01:35.833Z,17.40
2022-10-18T09:04:29.352Z,17.50
2022-10-18T09:07:04.917Z,17.50
2022-10-18T09:09:41.189Z,17.50
2022-10-18T09:12:07.939Z,17.50
2022-10-18T09:15:01.222Z,17.50
2022-10-18T09:17:48.063Z,17.70
2022-10-18T09:20:20.361Z,17.70
2022-10-18T09:23:10.659Z,17.80
2022-10-18T09:26:06.538Z,17.80
2022-10-18T09:28:43.052Z,17.80
2022-10-18T09:31:18.839Z,18.00
2022-10-18T09:34:01.910Z,18.10
2022-10-18T09:36:35.587Z,18.20
2022-10-18T09:39:10.287Z,18.20
2022-10-18T09:41:50.995Z,18.20
2022-10-18T09:44:25.618Z,18.20
2022-10-18T09:47:08.127Z,18.20
2022-10-18T09:49:47.341Z,18.20
2022-10-18T09:52:25.288Z,18.20
2022-10-18T09:54:57.169Z,18.30
2022-10-18T09:57:40.221Z,18.30
2022-10-18T10:00:15.908Z,18.20
2022-10-18T10:02:42.910Z,18.20
2022-10-18T10:05:19.840Z,18.10
2022-10-18T10:07:48.632Z,18.10
2022-10-18T10:10:25.130Z,18.20
2022-10-18T10:13:15.574Z,18.20
2022-10-18T10:15:51.935Z,18.20
2022-10-18T10:18:50.061Z,18.10
2022-10-18T10:21:17.176Z,18.00
2022-10-18T10:23:51.542Z,18.00
2022-10-18T10:26:25.597Z,17.90
2022-10-18T10:28:52.439Z,17.90
2022-10-18T10:31:25.434Z,17.90
2022-10-18T10:34:14.593Z,18.00
2022-10-18T10:36:52.973Z,18.00
2022-10-18T10:39:21.600Z,18.10
2022-10-18T10:41:53.114Z,18.10
2022-10-18T10:44:23.610Z,18.20
2022-10-18T10:46:51.945Z,18.20
2022-10-18T10:49:39.549Z,18.40
2022-10-18T10:52:27.021Z,18.60
2022-10-18T10:55:05.712Z,18.70
2022-10-18T10:57:38.848Z,18.80
2022-10-18T11:00:05.961Z,18.80
2022-10-18T11:02:34.825Z,18.80
2022-10-18T11:05:24.503Z,18.90
2022-10-18T11:07:55.227Z,19.20
2022-10-18T11:10:26.169Z,19.40
2022-10-18T11:13:04.691Z,19.50
2022-10-18T11:15:40.328Z,19.50
2022-10-18T11:18:19.358Z,19.50
2022-10-18T11:20:58.117Z,19.50
2022-10-18T11:23:36.688Z,19.50
2022-10-18T11:26:12.455Z,19.30
2022-10-18T11:28:54.473Z,19.30
2022-10-18T11:31:49.883Z,19.20
2022-10-18T11:34:43.588Z,19.10
2022-10-18T11:37:28.498Z,19.00
2022-10-18T11:40:15.604Z,19.00
2022-10-18T11:43:06.016Z,19.10
2022-10-18T11:46:02.953Z,19.20
2022-10-18T11:48:48.360Z,19.20
2022-10-18T11:51:55.898Z,19.20
2022-10-18T11:54:45.591Z,19.20
2022-10-18T11:57:39.684Z,19.10
2022-10-18T12:00:48.285Z,19.20
2022-10-18T12:03:29.632Z,19.30
2022-10-18T12:06:01.250Z,19.30
2022-10-18T12:08:49.304Z,19.30
2022-10-18T12:11:26.822Z,19.20
2022-10-18T12:14:01.779Z,19.10
2022-10-18T12:16:50.443Z,19.10
2022-10-18T12:19:27.613Z,19.10
2022-10-18T12:21:59.648Z,19.20
2022-10-18T12:24:30.040Z,19.20
2022-10-18T12:27:00.806Z,19.20
2022-10-18T12:29:35.644Z,19.20
2022-10-18T12:32:10.074Z,19.20
2022-10-18T12:34:46.525Z,19.20
2022-10-18T12:37:26.489Z,19.20
2022-10-18T12:40:09.877Z,19.20
2022-10-18T12:42:47.320Z,19.20
2022-10-18T12:45:13.905Z,19.20
2022-10-18T12:47:40.797Z,19.20
2022-10-18T12:50:28.238Z,19.20
2022-10-18T12:53:18.212Z,19.30
2022-10-18T12:55:48.337Z,19.40
2022-10-18T12:58:15.347Z,19.50
2022-10-18T13:00:42.161Z,19.40
2022-10-18T13:03:18.018Z,19.30
2022-10-18T13:05:53.495Z,19.20
2022-10-18T13:08:38.172Z,19.20
2022-10-18T13:11:10.820Z,19.20
2022-10-18T13:13:55.439Z,19.10
2022-10-18T13:16:31.153Z,19.20
2022-10-18T13:19:29.117Z,19.20
2022-10-18T13:22:25.150Z,19.30
2022-10-18T13:25:06.911Z,19.30
2022-10-18T13:27:39.522Z,19.30
2022-10-18T13:30:43.568Z,19.30
2022-10-18T13:33:16.060Z,19.20
2022-10-18T13:35:58.205Z,19.20
2022-10-18T13:38:44.797Z,19.10
2022-10-18T13:41:20.478Z,19.00
2022-10-18T13:43:55.784Z,18.90
2022-10-18T13:46:34.929Z,18.90
2022-10-18T13:49:33.180Z,18.80
2022-10-18T13:52:36.701Z,18.80
2022-10-18T13:55:06.395Z,18.70
2022-10-18T13:58:01.727Z,18.80
2022-10-18T14:00:28.369Z,18.80
2022-10-18T14:03:32.025Z,18.80
2022-10-18T14:06:19.585Z,18.80
2022-10-18T14:09:19.347Z,18.90
2022-10-18T14:12:03.532Z,18.90
2022-10-18T14:14:58.119Z,18.80
2022-10-18T14:17:42.985Z,18.90
2022-10-18T14:20:18.791Z,18.90
2022-10-18T14:22:54.700Z,18.80
2022-10-18T14:25:26.852Z,18.80
2022-10-18T14:28:21.669Z,18.80
2022-10-18T14:30:59.006Z,18.70
2022-10-18T14:33:38.829Z,18.60
2022-10-18T14:36:20.573Z,18.60
2022-10-18T14:38:55.517Z,18.60
2022-10-18T14:41:52.568Z,18.60
2022-10-18T14:44:28.048Z,18.60
2022-10-18T14:47:03.991Z,18.60
2022-10-18T14:49:31.054Z,18.60
2022-10-18T14:52:01.319Z,18.50
2022-10-18T14:54:31.963Z,18.50
2022-10-18T14:57:00.736Z,18.50
2022-10-18T14:59:30.541Z,18.50
2022-10-18T15:01:59.130Z,18.40
2022-10-18T15:04:34.192Z,18.40
2022-10-18T15:07:04.093Z,18.40
2022-10-18T15:09:34.075Z,18.30
2022-10-18T15:12:05.842Z,18.30
2022-10-18T15:14:33.779Z,18.20
2022-10-18T15:17:07.481Z,18.20
2022-10-18T15:19:36.659Z,18.20
2022-10-18T15:22:30.892Z,18.10
2022-10-18T15:25:05.749Z,18.10
2022-10-18T15:27:38.708Z,18.00
2022-10-18T15:30:08.587Z,17.90
2022-10-18T15:32:35.631Z,17.80
2022-10-18T15:35:23.487Z,17.70
2022-10-18T15:37:53.128Z,17.70
2022-10-18T15:40:22.788Z,17.60
2022-10-18T15:43:05.743Z,17.50
2022-10-18T15:45:36.261Z,17.50
2022-10-18T15:48:06.006Z,17.50
2022-10-18T15:50:42.184Z,17.40
2022-10-18T15:53:21.273Z,17.40
2022-10-18T15:55:56.907Z,17.40
2022-10-18T15:58:45.394Z,17.40
2022-10-18T16:01:40.985Z,17.30
2022-10-18T16:04:19.857Z,17.30
2022-10-18T16:06:46.632Z,17.30
2022-10-18T16:09:16.709Z,17.30
2022-10-18T16:11:43.804Z,17.30
2022-10-18T16:14:10.753Z,17.20
2022-10-18T16:16:38.634Z,17.20
2022-10-18T16:19:05.618Z,17.20
2022-10-18T16:21:35.618Z,17.20
2022-10-18T16:24:03.128Z,17.20
2022-10-18T16:26:30.289Z,17.20
2022-10-18T16:28:58.457Z,17.20
2022-10-18T16:31:28.159Z,17.10
2022-10-18T16:33:55.783Z,17.10
2022-10-18T16:36:29.056Z,17.10
2022-10-18T16:38:57.469Z,17.10
2022-10-18T16:41:24.598Z,17.00
2022-10-18T16:43:51.551Z,17.00
2022-10-18T16:46:29.969Z,17.00
2022-10-18T16:48:57.736Z,17.00
2022-10-18T16:51:25.276Z,17.00
2022-10-18T16:53:53.363Z,17.00
2022-10-18T16:56:21.915Z,16.90
2022-10-18T16:58:49.374Z,17.00
2022-10-18T17:01:18.937Z,16.90
2022-10-18T17:03:46.717Z,16.90
2022-10-18T17:06:17.584Z,16.90
2022-10-18T17:08:45.005Z,16.90
2022-10-18T17:11:13.088Z,16.90
2022-10-18T17:13:39.927Z,16.80
2022-10-18T17:16:07.316Z,16.80
2022-10-18T17:18:34.199Z,16.90
2022-10-18T17:21:03.084Z,16.80
2022-10-18T17:23:30.339Z,16.80
2022-10-18T17:26:07.238Z,16.80
2022-10-18T17:28:43.814Z,16.80
2022-10-18T17:31:10.915Z,16.80
2022-10-18T17:33:37.625Z,16.80
2022-10-18T17:36:04.486Z,16.70
2022-10-18T17:38:31.232Z,16.70
2022-10-18T17:40:57.877Z,16.60
2022-10-18T17:43:24.817Z,16.60
2022-10-18T17:45:55.918Z,16.50
2022-10-18T17:48:24.444Z,16.50
2022-10-18T17:50:51.302Z,16.50
2022-10-18T17:53:22.484Z,16.40
2022-10-18T17:55:49.593Z,16.50
2022-10-18T17:58:16.476Z,16.40
2022-10-18T18:00:43.181Z,16.40
2022-10-18T18:03:10.010Z,16.40
2022-10-18T18:05:36.979Z,16.40
2022-10-18T18:08:04.424Z,16.40
2022-10-18T18:10:33.567Z,16.50
2022-10-18T18:13:01.252Z,16.40
2022-10-18T18:15:28.390Z,16.40
2022-10-18T18:17:57.384Z,16.40
2022-10-18T18:20:25.976Z,16.40
2022-10-18T18:22:53.167Z,16.30
2022-10-18T18:25:19.926Z,16.30
2022-10-18T18:27:46.661Z,16.30
2022-10-18T18:30:14.428Z,16.30
2022-10-18T18:32:41.099Z,16.30
2022-10-18T18:35:08.021Z,16.30
2022-10-18T18:37:34.727Z,16.30
2022-10-18T18:40:01.458Z,16.30
2022-10-18T18:42:28.159Z,16.20
2022-10-18T18:44:54.920Z,16.20
2022-10-18T18:47:23.428Z,16.20
2022-10-18T18:49:51.572Z,16.10
2022-10-18T18:52:18.319Z,16.10
2022-10-18T18:54:46.289Z,16.00
2022-10-18T18:57:12.955Z,16.00
2022-10-18T18:59:39.624Z,15.90
2022-10-18T19:02:06.850Z,15.90
2022-10-18T19:04:34.973Z,15.90
2022-10-18T19:07:02.041Z,15.90
2022-10-18T19:09:28.769Z,15.90
2022-10-18T19:11:56.490Z,15.90
2022-10-18T19:14:25.431Z,15.90
2022-10-18T19:16:58.813Z,15.80
2022-10-18T19:19:27.681Z,15.80
2022-10-18T19:21:57.006Z,15.80
2022-10-18T19:24:25.437Z,15.70
2022-10-18T19:26:58.321Z,15.70
2022-10-18T19:29:27.567Z,15.60
2022-10-18T19:31:57.373Z,15.60
2022-10-18T19:34:26.349Z,15.60
2022-10-18T19:36:53.246Z,15.60
2022-10-18T19:39:25.282Z,15.60
2022-10-18T19:41:55.242Z,15.60
2022-10-18T19:44:23.759Z,15.60
2022-10-18T19:46:51.021Z,15.50
2022-10-18T19:49:17.899Z,15.50
2022-10-18T19:51:45.284Z,15.50
2022-10-18T19:54:13.712Z,15.40
2022-10-18T19:56:43.894Z,15.40
2022-10-18T19:59:11.776Z,15.40
2022-10-18T20:01:38.870Z,15.40
2022-10-18T20:04:07.251Z,15.40
2022-10-18T20:06:34.792Z,15.40
2022-10-18T20:09:01.982Z,15.30
2022-10-18T20:11:29.786Z,15.30
2022-10-18T20:13:57.292Z,15.30
2022-10-18T20:16:28.621Z,15.30
2022-10-18T20:19:04.355Z,15.30
2022-10-18T20:21:35.521Z,15.20
2022-10-18T20:24:06.379Z,15.20
2022-10-18T20:26:35.738Z,15.20
2022-10-18T20:29:03.057Z,15.10
2022-10-18T20:31:33.892Z,15.10
2022-10-18T20:34:02.308Z,15.10
2022-10-18T20:36:30.975Z,15.10
2022-10-18T20:38:58.399Z,15.00
2022-10-18T20:41:28.144Z,15.00
2022-10-18T20:44:04.232Z,15.00
2022-10-18T20:46:31.999Z,14.90
2022-10-18T20:48:59.080Z,14.90
2022-10-18T20:51:26.018Z,14.80
2022-10-18T20:53:53.577Z,14.90
2022-10-18T20:56:27.090Z,14.80
2022-10-18T20:58:56.008Z,14.90
2022-10-18T21:01:28.831Z,14.80
2022-10-18T21:03:57.400Z,14.80
2022-10-18T21:06:29.735Z,14.70
2022-10-18T21:08:58.844Z,14.70
2022-10-18T21:11:27.018Z,14.60
2022-10-18T21:13:55.831Z,14.60
2022-10-18T21:16:22.825Z,14.50
2022-10-18T21:18:49.617Z,14.60
2022-10-18T21:21:20.139Z,14.60
2022-10-18T21:23:47.447Z,14.60
2022-10-18T21:26:19.562Z,14.60
2022-10-18T21:28:46.530Z,14.70
2022-10-18T21:31:14.679Z,14.70
2022-10-18T21:33:41.959Z,14.80
2022-10-18T21:36:09.121Z,14.80
2022-10-18T21:38:36.142Z,14.80
2022-10-18T21:41:11.084Z,14.80
2022-10-18T21:43:46.065Z,14.80
2022-10-18T21:46:14.468Z,14.80
2022-10-18T21:48:46.467Z,14.80
2022-10-18T21:51:15.075Z,14.80
2022-10-18T21:53:47.176Z,14.90
2022-10-18T21:56:17.251Z,15.00
2022-10-18T21:58:44.843Z,15.00
2022-10-18T22:01:24.458Z,15.00
2022-10-18T22:03:53.218Z,15.10
2022-10-18T22:06:20.760Z,15.10
2022-10-18T22:08:50.833Z,15.10
2022-10-18T22:11:19.445Z,15.00
2022-10-18T22:13:46.257Z,15.10
2022-10-18T22:16:14.793Z,15.10
2022-10-18T22:18:41.999Z,15.10
2022-10-18T22:21:10.214Z,15.10
2022-10-18T22:23:42.835Z,15.00
2022-10-18T22:26:15.552Z,15.00
2022-10-18T22:28:44.058Z,15.10
2022-10-18T22:31:22.782Z,15.00
2022-10-18T22:33:55.028Z,15.00
2022-10-18T22:36:21.954Z,15.10
2022-10-18T22:38:48.937Z,15.00
2022-10-18T22:41:15.965Z,15.00
2022-10-18T22:43:42.967Z,15.00
2022-10-18T22:46:12.403Z,15.00
2022-10-18T22:48:39.641Z,15.00
2022-10-18T22:51:06.764Z,15.00
2022-10-18T22:53:34.708Z,15.00
2022-10-18T22:56:01.657Z,15.00
2022-10-18T22:58:28.332Z,15.00
2022-10-18T23:01:06.278Z,14.90
2022-10-18T23:03:33.373Z,14.90
2022-10-18T23:06:00.676Z,14.90
2022-10-18T23:08:27.852Z,14.90
2022-10-18T23:10:56.657Z,14.90
2022-10-18T23:13:24.954Z,14.90
2022-10-18T23:15:52.036Z,14.90
2022-10-18T23:18:19.360Z,14.90
2022-10-18T23:20:46.200Z,14.90
2022-10-18T23:23:13.608Z,14.90
2022-10-18T23:25:40.582Z,14.90
2022-10-18T23:28:07.385Z,14.90
2022-10-18T23:30:34.295Z,14.90
2022-10-18T23:33:00.954Z,14.90
2022-10-18T23:35:28.770Z,14.80
2022-10-18T23:37:55.576Z,14.80
2022-10-18T23:40:22.238Z,14.80
2022-10-18T23:42:48.975Z,14.80
2022-10-18T23:45:15.724Z,14.80
2022-10-18T23:47:42.393Z,14.80
2022-10-18T23:50:09.485Z,14.80
2022-10-18T23:52:36.168Z,14.80
2022-10-18T23:55:03.123Z,14.80
2022-10-18T23:57:29.850Z,14.80
2022-10-18T23:59:56.594Z,14.80
